VLG615Q LEBB-EGKK
Flight info
| Callsign | VLG615Q |
|---|---|
| Flight time | 1h 16m |
| Altitude | 36000 |
| Route | BISKA P87 BELEN DCT DIDIG UP87 UPALO/N0431F340 UP87 REVTU UP88 VASUX |
| Aircraft | A320/M-SDE3FGHIRWY/LB1 |
Departure
| Time | 2026-05-05 19:10 |
|---|---|
| Airport | Bilbao Airport (LEBB) |
Arrival
| Time | 2026-05-05 20:27 |
|---|---|
| Airport | London Gatwick Airport (EGKK) |
| Time | Latitude | Longitude | Altitude | Speed | Heading |
|---|---|---|---|---|---|
| 2026-05-05 18:42 | 43.30444 | -2.90683 | 122 ft | 0 kts | 26° |
| 2026-05-05 19:00 | 43.30440 | -2.90686 | 127 ft | 4 kts | 27° |
| 2026-05-05 19:00 | 43.30417 | -2.90705 | 123 ft | 4 kts | 37° |
| 2026-05-05 19:00 | 43.30398 | -2.90729 | 125 ft | 4 kts | 60° |
| 2026-05-05 19:01 | 43.30392 | -2.90759 | 124 ft | 2 kts | 115° |
| 2026-05-05 19:01 | 43.30395 | -2.90767 | 126 ft | 0 kts | 116° |
| 2026-05-05 19:04 | 43.30391 | -2.90756 | 124 ft | 2 kts | 116° |
| 2026-05-05 19:04 | 43.30389 | -2.90750 | 125 ft | 0 kts | 116° |
| 2026-05-05 19:04 | 43.30385 | -2.90739 | 125 ft | 2 kts | 116° |
| 2026-05-05 19:04 | 43.30376 | -2.90713 | 127 ft | 3 kts | 116° |
| 2026-05-05 19:05 | 43.30368 | -2.90691 | 126 ft | 2 kts | 116° |
| 2026-05-05 19:05 | 43.30363 | -2.90677 | 123 ft | 1 kts | 116° |
| 2026-05-05 19:05 | 43.30341 | -2.90623 | 125 ft | 10 kts | 126° |
| 2026-05-05 19:05 | 43.30287 | -2.90565 | 124 ft | 9 kts | 147° |
| 2026-05-05 19:06 | 43.30236 | -2.90527 | 125 ft | 7 kts | 170° |
| 2026-05-05 19:06 | 43.30196 | -2.90546 | 125 ft | 6 kts | 208° |
| 2026-05-05 19:06 | 43.30161 | -2.90570 | 127 ft | 7 kts | 204° |
| 2026-05-05 19:06 | 43.30115 | -2.90565 | 125 ft | 8 kts | 140° |
| 2026-05-05 19:07 | 43.30082 | -2.90471 | 126 ft | 12 kts | 116° |
| 2026-05-05 19:07 | 43.30046 | -2.90374 | 128 ft | 12 kts | 118° |
| 2026-05-05 19:07 | 43.30010 | -2.90282 | 127 ft | 11 kts | 117° |
| 2026-05-05 19:07 | 43.29975 | -2.90187 | 125 ft | 12 kts | 117° |
| 2026-05-05 19:08 | 43.29936 | -2.90081 | 127 ft | 13 kts | 117° |
| 2026-05-05 19:08 | 43.29890 | -2.89957 | 123 ft | 16 kts | 117° |
| 2026-05-05 19:08 | 43.29839 | -2.89814 | 125 ft | 18 kts | 117° |
| 2026-05-05 19:08 | 43.29778 | -2.89653 | 125 ft | 19 kts | 119° |
| 2026-05-05 19:09 | 43.29740 | -2.89580 | 128 ft | 9 kts | 157° |
| 2026-05-05 19:09 | 43.29687 | -2.89626 | 128 ft | 11 kts | 237° |
| 2026-05-05 19:09 | 43.29639 | -2.89724 | 126 ft | 14 kts | 247° |
| 2026-05-05 19:09 | 43.29664 | -2.89843 | 126 ft | 14 kts | 297° |
| 2026-05-05 19:10 | 43.29735 | -2.90037 | 125 ft | 46 kts | 297° |
| 2026-05-05 19:10 | 43.29984 | -2.90714 | 125 ft | 109 kts | 297° |
| 2026-05-05 19:10 | 43.30394 | -2.91833 | 158 ft | 152 kts | 297° |
| 2026-05-05 19:10 | 43.30874 | -2.93079 | 763 ft | 145 kts | 296° |
| 2026-05-05 19:11 | 43.31338 | -2.94311 | 1365 ft | 147 kts | 296° |
| 2026-05-05 19:11 | 43.31841 | -2.95664 | 1587 ft | 176 kts | 296° |
| 2026-05-05 19:11 | 43.32458 | -2.97279 | 1773 ft | 204 kts | 301° |
| 2026-05-05 19:11 | 43.33427 | -2.98876 | 2073 ft | 231 kts | 315° |
| 2026-05-05 19:12 | 43.34660 | -3.00437 | 2715 ft | 246 kts | 317° |
| 2026-05-05 19:12 | 43.35947 | -3.01989 | 3715 ft | 246 kts | 317° |
| 2026-05-05 19:12 | 43.37237 | -3.03559 | 4687 ft | 248 kts | 319° |
| 2026-05-05 19:12 | 43.38749 | -3.04715 | 5544 ft | 255 kts | 344° |
| 2026-05-05 19:13 | 43.40522 | -3.04738 | 6385 ft | 266 kts | 11° |
| 2026-05-05 19:13 | 43.42224 | -3.03641 | 7192 ft | 275 kts | 28° |
| 2026-05-05 19:13 | 43.43838 | -3.02188 | 8044 ft | 279 kts | 30° |
| 2026-05-05 19:13 | 43.45462 | -3.00698 | 8877 ft | 282 kts | 30° |
| 2026-05-05 19:14 | 43.47129 | -2.99248 | 9693 ft | 285 kts | 28° |
| 2026-05-05 19:14 | 43.48833 | -2.97817 | 10479 ft | 289 kts | 27° |
| 2026-05-05 19:14 | 43.50584 | -2.96365 | 11021 ft | 303 kts | 28° |
| 2026-05-05 19:14 | 43.52461 | -2.94812 | 11238 ft | 326 kts | 28° |
| 2026-05-05 19:15 | 43.54435 | -2.93170 | 11733 ft | 336 kts | 28° |
| 2026-05-05 19:15 | 43.56445 | -2.91481 | 12381 ft | 341 kts | 28° |
| 2026-05-05 19:15 | 43.58479 | -2.89761 | 13056 ft | 344 kts | 29° |
| 2026-05-05 19:15 | 43.60531 | -2.88020 | 13758 ft | 348 kts | 29° |
| 2026-05-05 19:16 | 43.62598 | -2.86264 | 14393 ft | 351 kts | 29° |
| 2026-05-05 19:16 | 43.64685 | -2.84489 | 14855 ft | 354 kts | 28° |
| 2026-05-05 19:16 | 43.66788 | -2.82705 | 14980 ft | 354 kts | 27° |
| 2026-05-05 19:16 | 43.69011 | -2.81278 | 15195 ft | 353 kts | 15° |
| 2026-05-05 19:17 | 43.71354 | -2.80428 | 15843 ft | 353 kts | 10° |
| 2026-05-05 19:17 | 43.73754 | -2.79666 | 16456 ft | 355 kts | 10° |
| 2026-05-05 19:17 | 43.76172 | -2.78882 | 17064 ft | 358 kts | 11° |
| 2026-05-05 19:17 | 43.78606 | -2.78078 | 17677 ft | 361 kts | 11° |
| 2026-05-05 19:18 | 43.81061 | -2.77266 | 18282 ft | 364 kts | 11° |
| 2026-05-05 19:18 | 43.83542 | -2.76447 | 18826 ft | 368 kts | 11° |
| 2026-05-05 19:18 | 43.86037 | -2.75627 | 19386 ft | 370 kts | 11° |
| 2026-05-05 19:18 | 43.88554 | -2.74803 | 19959 ft | 373 kts | 11° |
| 2026-05-05 19:19 | 43.91089 | -2.73973 | 20533 ft | 376 kts | 10° |
| 2026-05-05 19:19 | 43.93653 | -2.73229 | 21093 ft | 378 kts | 8° |
| 2026-05-05 19:19 | 43.96251 | -2.72614 | 21629 ft | 380 kts | 6° |
| 2026-05-05 19:19 | 43.98874 | -2.72069 | 22170 ft | 382 kts | 6° |
| 2026-05-05 19:20 | 44.01525 | -2.71546 | 22711 ft | 385 kts | 6° |
| 2026-05-05 19:20 | 44.04190 | -2.71016 | 23228 ft | 388 kts | 6° |
| 2026-05-05 19:20 | 44.06834 | -2.70468 | 23696 ft | 391 kts | 7° |
| 2026-05-05 19:20 | 44.09531 | -2.69887 | 24109 ft | 394 kts | 7° |
| 2026-05-05 19:21 | 44.12242 | -2.69288 | 24510 ft | 396 kts | 7° |
| 2026-05-05 19:21 | 44.14976 | -2.68676 | 24913 ft | 399 kts | 7° |
| 2026-05-05 19:21 | 44.17726 | -2.68060 | 25302 ft | 402 kts | 7° |
| 2026-05-05 19:21 | 44.20494 | -2.67438 | 25698 ft | 404 kts | 8° |
| 2026-05-05 19:22 | 44.23282 | -2.66815 | 26117 ft | 406 kts | 8° |
| 2026-05-05 19:22 | 44.26091 | -2.66189 | 26451 ft | 410 kts | 8° |
| 2026-05-05 19:22 | 44.28912 | -2.65560 | 26832 ft | 411 kts | 8° |
| 2026-05-05 19:22 | 44.31750 | -2.64926 | 27165 ft | 415 kts | 8° |
| 2026-05-05 19:23 | 44.34606 | -2.64288 | 27518 ft | 417 kts | 8° |
| 2026-05-05 19:23 | 44.37483 | -2.63643 | 27890 ft | 420 kts | 8° |
| 2026-05-05 19:23 | 44.40381 | -2.62990 | 28226 ft | 422 kts | 9° |
| 2026-05-05 19:23 | 44.43288 | -2.62336 | 28653 ft | 423 kts | 9° |
| 2026-05-05 19:24 | 44.46208 | -2.61685 | 28975 ft | 426 kts | 9° |
| 2026-05-05 19:24 | 44.49108 | -2.61038 | 29359 ft | 427 kts | 9° |
| 2026-05-05 19:24 | 44.52056 | -2.60379 | 29661 ft | 431 kts | 9° |
| 2026-05-05 19:24 | 44.55024 | -2.59712 | 30007 ft | 432 kts | 10° |
| 2026-05-05 19:25 | 44.58005 | -2.59039 | 30268 ft | 436 kts | 9° |
| 2026-05-05 19:25 | 44.61007 | -2.58360 | 30581 ft | 436 kts | 10° |
| 2026-05-05 19:25 | 44.63995 | -2.57685 | 31003 ft | 434 kts | 10° |
| 2026-05-05 19:25 | 44.66987 | -2.57011 | 31358 ft | 435 kts | 9° |
| 2026-05-05 19:26 | 44.69973 | -2.56337 | 31739 ft | 435 kts | 9° |
| 2026-05-05 19:26 | 44.72966 | -2.55659 | 32049 ft | 437 kts | 9° |
| 2026-05-05 19:26 | 44.75968 | -2.54978 | 32404 ft | 437 kts | 9° |
| 2026-05-05 19:26 | 44.78982 | -2.54295 | 32711 ft | 439 kts | 9° |
| 2026-05-05 19:27 | 44.82002 | -2.53608 | 33045 ft | 440 kts | 8° |
| 2026-05-05 19:27 | 44.84988 | -2.52928 | 33379 ft | 441 kts | 8° |
| 2026-05-05 19:27 | 44.88024 | -2.52238 | 33718 ft | 442 kts | 7° |
| 2026-05-05 19:27 | 44.91071 | -2.51544 | 33931 ft | 444 kts | 7° |
| 2026-05-05 19:28 | 44.97184 | -2.50149 | 33963 ft | 444 kts | 7° |
| 2026-05-05 19:28 | 45.03279 | -2.48760 | 33961 ft | 443 kts | 8° |
| 2026-05-05 19:29 | 45.09357 | -2.47365 | 33955 ft | 442 kts | 7° |
| 2026-05-05 19:29 | 45.15430 | -2.45973 | 33962 ft | 442 kts | 7° |
| 2026-05-05 19:30 | 45.21494 | -2.44576 | 33949 ft | 441 kts | 9° |
| 2026-05-05 19:30 | 45.27521 | -2.43184 | 33960 ft | 441 kts | 8° |
| 2026-05-05 19:31 | 45.33580 | -2.41788 | 33954 ft | 441 kts | 8° |
| 2026-05-05 19:31 | 45.39643 | -2.40383 | 33949 ft | 441 kts | 9° |
| 2026-05-05 19:32 | 45.45703 | -2.38976 | 34117 ft | 442 kts | 9° |
| 2026-05-05 19:32 | 45.48742 | -2.38269 | 34452 ft | 441 kts | 8° |
| 2026-05-05 19:32 | 45.51735 | -2.37569 | 34735 ft | 442 kts | 8° |
| 2026-05-05 19:33 | 45.54774 | -2.36862 | 35011 ft | 442 kts | 8° |
| 2026-05-05 19:33 | 45.57817 | -2.36154 | 35274 ft | 443 kts | 8° |
| 2026-05-05 19:33 | 45.60863 | -2.35447 | 35523 ft | 444 kts | 8° |
| 2026-05-05 19:33 | 45.63913 | -2.34737 | 35773 ft | 444 kts | 8° |
| 2026-05-05 19:34 | 45.66973 | -2.34021 | 35911 ft | 447 kts | 8° |
| 2026-05-05 19:34 | 45.70062 | -2.33296 | 35937 ft | 451 kts | 8° |
| 2026-05-05 19:35 | 45.78351 | -2.31336 | 35937 ft | 453 kts | 9° |
| 2026-05-05 19:35 | 45.85583 | -2.29633 | 35936 ft | 453 kts | 9° |
| 2026-05-05 19:36 | 45.90797 | -2.28411 | 35932 ft | 453 kts | 8° |
| 2026-05-05 19:36 | 45.96983 | -2.26955 | 35934 ft | 453 kts | 9° |
| 2026-05-05 19:37 | 46.03208 | -2.25480 | 35940 ft | 453 kts | 9° |
| 2026-05-05 19:37 | 46.09449 | -2.23988 | 35944 ft | 453 kts | 9° |
| 2026-05-05 19:38 | 46.15634 | -2.22478 | 35937 ft | 454 kts | 9° |
| 2026-05-05 19:38 | 46.21856 | -2.20948 | 35943 ft | 453 kts | 9° |
| 2026-05-05 19:39 | 46.28077 | -2.19419 | 35946 ft | 453 kts | 9° |
| 2026-05-05 19:39 | 46.34302 | -2.17896 | 35935 ft | 455 kts | 9° |
| 2026-05-05 19:40 | 46.40629 | -2.16345 | 35920 ft | 464 kts | 9° |
| 2026-05-05 19:40 | 46.46981 | -2.14784 | 35920 ft | 466 kts | 9° |
| 2026-05-05 19:41 | 46.53369 | -2.13215 | 35920 ft | 465 kts | 9° |
| 2026-05-05 19:41 | 46.59742 | -2.11631 | 35920 ft | 464 kts | 10° |
| 2026-05-05 19:42 | 46.66121 | -2.10041 | 35918 ft | 464 kts | 10° |
| 2026-05-05 19:42 | 46.72484 | -2.08461 | 35926 ft | 464 kts | 10° |
| 2026-05-05 19:43 | 46.78855 | -2.06887 | 35929 ft | 464 kts | 10° |
| 2026-05-05 19:43 | 46.85182 | -2.05321 | 35930 ft | 464 kts | 10° |
| 2026-05-05 19:44 | 46.91548 | -2.03722 | 35933 ft | 464 kts | 10° |
| 2026-05-05 19:44 | 46.97925 | -2.02103 | 35927 ft | 465 kts | 10° |
| 2026-05-05 19:45 | 47.04311 | -2.00508 | 35930 ft | 465 kts | 10° |
| 2026-05-05 19:45 | 47.10697 | -1.98912 | 35931 ft | 466 kts | 10° |
| 2026-05-05 19:46 | 47.17085 | -1.97293 | 35926 ft | 466 kts | 10° |
| 2026-05-05 19:46 | 47.23435 | -1.95678 | 35924 ft | 466 kts | 10° |
| 2026-05-05 19:47 | 47.29829 | -1.94050 | 35926 ft | 466 kts | 10° |
| 2026-05-05 19:47 | 47.36228 | -1.92421 | 35927 ft | 466 kts | 10° |
| 2026-05-05 19:48 | 47.42628 | -1.90800 | 35923 ft | 467 kts | 10° |
| 2026-05-05 19:48 | 47.49037 | -1.89164 | 35924 ft | 467 kts | 10° |
| 2026-05-05 19:49 | 47.55434 | -1.87521 | 35926 ft | 467 kts | 10° |
| 2026-05-05 19:49 | 47.61837 | -1.85872 | 35924 ft | 467 kts | 10° |
| 2026-05-05 19:50 | 47.68209 | -1.84229 | 35924 ft | 466 kts | 10° |
| 2026-05-05 19:50 | 47.74612 | -1.82575 | 35924 ft | 466 kts | 10° |
| 2026-05-05 19:51 | 47.80968 | -1.80929 | 35925 ft | 466 kts | 11° |
| 2026-05-05 19:51 | 47.87355 | -1.79283 | 35947 ft | 466 kts | 10° |
| 2026-05-05 19:52 | 47.93742 | -1.77626 | 35954 ft | 465 kts | 10° |
| 2026-05-05 19:52 | 48.00120 | -1.75961 | 35956 ft | 465 kts | 11° |
| 2026-05-05 19:53 | 48.06506 | -1.74361 | 35956 ft | 465 kts | 6° |
| 2026-05-05 19:53 | 48.12977 | -1.74267 | 35954 ft | 465 kts | 0° |
| 2026-05-05 19:54 | 48.19458 | -1.74356 | 35947 ft | 465 kts | 0° |
| 2026-05-05 19:54 | 48.25936 | -1.74414 | 35938 ft | 465 kts | 0° |
| 2026-05-05 19:55 | 48.32372 | -1.74477 | 35936 ft | 466 kts | 360° |
| 2026-05-05 19:55 | 48.38860 | -1.74552 | 35936 ft | 466 kts | 360° |
| 2026-05-05 19:56 | 48.45342 | -1.74635 | 35936 ft | 466 kts | 0° |
| 2026-05-05 19:56 | 48.51832 | -1.74728 | 35942 ft | 466 kts | 360° |
| 2026-05-05 19:57 | 48.58323 | -1.74810 | 35940 ft | 466 kts | 0° |
| 2026-05-05 19:57 | 48.64813 | -1.74878 | 35940 ft | 466 kts | 0° |
| 2026-05-05 19:58 | 48.71311 | -1.74949 | 35941 ft | 467 kts | 0° |
| 2026-05-05 19:58 | 48.77783 | -1.75031 | 35943 ft | 467 kts | 0° |
| 2026-05-05 19:59 | 48.84284 | -1.75114 | 35948 ft | 467 kts | 0° |
| 2026-05-05 19:59 | 48.90786 | -1.75199 | 35948 ft | 467 kts | 0° |
| 2026-05-05 20:00 | 48.97282 | -1.75098 | 35956 ft | 467 kts | 2° |
| 2026-05-05 20:00 | 49.03787 | -1.74766 | 35935 ft | 469 kts | 2° |
| 2026-05-05 20:01 | 49.10271 | -1.74446 | 35932 ft | 470 kts | 2° |
| 2026-05-05 20:01 | 49.16818 | -1.74195 | 35937 ft | 471 kts | 2° |
| 2026-05-05 20:02 | 49.23384 | -1.73968 | 35942 ft | 472 kts | 2° |
| 2026-05-05 20:02 | 49.29960 | -1.73721 | 35945 ft | 472 kts | 2° |
| 2026-05-05 20:03 | 49.36526 | -1.73466 | 35957 ft | 472 kts | 2° |
| 2026-05-05 20:03 | 49.43069 | -1.73208 | 35951 ft | 472 kts | 2° |
| 2026-05-05 20:04 | 49.49646 | -1.72957 | 35966 ft | 473 kts | 2° |
| 2026-05-05 20:04 | 49.56223 | -1.72700 | 35968 ft | 472 kts | 2° |
| 2026-05-05 20:05 | 49.62659 | -1.70960 | 35969 ft | 470 kts | 20° |
| 2026-05-05 20:05 | 49.68826 | -1.67556 | 35969 ft | 470 kts | 20° |
| 2026-05-05 20:06 | 49.74987 | -1.64150 | 35968 ft | 471 kts | 20° |
| 2026-05-05 20:06 | 49.81153 | -1.60726 | 35969 ft | 471 kts | 20° |
| 2026-05-05 20:07 | 49.87322 | -1.57303 | 35974 ft | 470 kts | 20° |
| 2026-05-05 20:07 | 49.90390 | -1.55599 | 35664 ft | 466 kts | 20° |
| 2026-05-05 20:07 | 49.93391 | -1.53927 | 35041 ft | 462 kts | 20° |
| 2026-05-05 20:07 | 49.96412 | -1.52239 | 34365 ft | 460 kts | 20° |
| 2026-05-05 20:08 | 49.99417 | -1.50556 | 33621 ft | 459 kts | 20° |
| 2026-05-05 20:08 | 50.02436 | -1.48913 | 32740 ft | 459 kts | 19° |
| 2026-05-05 20:08 | 50.05475 | -1.47374 | 31829 ft | 460 kts | 18° |
| 2026-05-05 20:08 | 50.08545 | -1.45899 | 30861 ft | 462 kts | 17° |
| 2026-05-05 20:09 | 50.11639 | -1.44444 | 29861 ft | 465 kts | 17° |
| 2026-05-05 20:09 | 50.14740 | -1.42983 | 28713 ft | 467 kts | 17° |
| 2026-05-05 20:09 | 50.17841 | -1.41502 | 28173 ft | 464 kts | 17° |
| 2026-05-05 20:09 | 50.20885 | -1.40029 | 27898 ft | 462 kts | 17° |
| 2026-05-05 20:10 | 50.23909 | -1.38404 | 27142 ft | 457 kts | 24° |
| 2026-05-05 20:10 | 50.26740 | -1.36207 | 26443 ft | 451 kts | 27° |
| 2026-05-05 20:10 | 50.29525 | -1.34008 | 25766 ft | 445 kts | 26° |
| 2026-05-05 20:10 | 50.32274 | -1.31835 | 25111 ft | 439 kts | 26° |
| 2026-05-05 20:11 | 50.34986 | -1.29686 | 24462 ft | 434 kts | 26° |
| 2026-05-05 20:11 | 50.37667 | -1.27552 | 23832 ft | 429 kts | 26° |
| 2026-05-05 20:11 | 50.40313 | -1.25439 | 22938 ft | 428 kts | 26° |
| 2026-05-05 20:11 | 50.42985 | -1.23306 | 21744 ft | 433 kts | 26° |
| 2026-05-05 20:12 | 50.45676 | -1.21155 | 20753 ft | 434 kts | 26° |
| 2026-05-05 20:12 | 50.48354 | -1.19011 | 19908 ft | 430 kts | 27° |
| 2026-05-05 20:12 | 50.51010 | -1.16886 | 19041 ft | 427 kts | 27° |
| 2026-05-05 20:12 | 50.53656 | -1.14768 | 18134 ft | 426 kts | 27° |
| 2026-05-05 20:13 | 50.56291 | -1.12655 | 17165 ft | 423 kts | 27° |
| 2026-05-05 20:13 | 50.58863 | -1.10590 | 16340 ft | 418 kts | 27° |
| 2026-05-05 20:13 | 50.61437 | -1.08513 | 15560 ft | 413 kts | 27° |
| 2026-05-05 20:13 | 50.63978 | -1.06447 | 14827 ft | 409 kts | 28° |
| 2026-05-05 20:14 | 50.66283 | -1.03871 | 14101 ft | 406 kts | 42° |
| 2026-05-05 20:14 | 50.68156 | -1.00562 | 13411 ft | 403 kts | 50° |
| 2026-05-05 20:14 | 50.69928 | -0.97148 | 13029 ft | 402 kts | 50° |
| 2026-05-05 20:14 | 50.71707 | -0.93711 | 12923 ft | 402 kts | 50° |
| 2026-05-05 20:15 | 50.73456 | -0.90331 | 12945 ft | 387 kts | 50° |
| 2026-05-05 20:15 | 50.75086 | -0.87175 | 12955 ft | 365 kts | 50° |
| 2026-05-05 20:15 | 50.76642 | -0.84157 | 12952 ft | 344 kts | 50° |
| 2026-05-05 20:15 | 50.78115 | -0.81300 | 12950 ft | 326 kts | 50° |
| 2026-05-05 20:16 | 50.79516 | -0.78579 | 12950 ft | 311 kts | 50° |
| 2026-05-05 20:16 | 50.80698 | -0.75812 | 12953 ft | 301 kts | 62° |
| 2026-05-05 20:16 | 50.81426 | -0.72722 | 12861 ft | 299 kts | 75° |
| 2026-05-05 20:16 | 50.81822 | -0.69506 | 12487 ft | 298 kts | 78° |
| 2026-05-05 20:17 | 50.82194 | -0.66290 | 12135 ft | 296 kts | 78° |
| 2026-05-05 20:17 | 50.82732 | -0.63141 | 11632 ft | 297 kts | 61° |
| 2026-05-05 20:17 | 50.84007 | -0.60651 | 11346 ft | 289 kts | 36° |
| 2026-05-05 20:17 | 50.85763 | -0.59153 | 10996 ft | 287 kts | 22° |
| 2026-05-05 20:18 | 50.87602 | -0.57943 | 10645 ft | 286 kts | 21° |
| 2026-05-05 20:18 | 50.89415 | -0.56774 | 10313 ft | 282 kts | 21° |
| 2026-05-05 20:18 | 50.91227 | -0.55625 | 9710 ft | 279 kts | 17° |
| 2026-05-05 20:18 | 50.93144 | -0.55247 | 9061 ft | 274 kts | 358° |
| 2026-05-05 20:19 | 50.95021 | -0.55377 | 8608 ft | 265 kts | 356° |
| 2026-05-05 20:19 | 50.96838 | -0.55558 | 8121 ft | 259 kts | 356° |
| 2026-05-05 20:19 | 50.98604 | -0.55746 | 7593 ft | 256 kts | 356° |
| 2026-05-05 20:19 | 51.00371 | -0.55942 | 7082 ft | 253 kts | 356° |
| 2026-05-05 20:20 | 51.02103 | -0.56138 | 6937 ft | 245 kts | 356° |
| 2026-05-05 20:20 | 51.03737 | -0.56328 | 6766 ft | 228 kts | 356° |
| 2026-05-05 20:20 | 51.05336 | -0.56517 | 6157 ft | 232 kts | 356° |
| 2026-05-05 20:20 | 51.06948 | -0.56713 | 5646 ft | 231 kts | 356° |
| 2026-05-05 20:21 | 51.08530 | -0.56747 | 5241 ft | 225 kts | 12° |
| 2026-05-05 20:21 | 51.09865 | -0.55582 | 4738 ft | 224 kts | 51° |
| 2026-05-05 20:21 | 51.10359 | -0.53285 | 4367 ft | 226 kts | 88° |
| 2026-05-05 20:21 | 51.10346 | -0.50794 | 4038 ft | 221 kts | 79° |
| 2026-05-05 20:22 | 51.10663 | -0.48496 | 3750 ft | 210 kts | 74° |
| 2026-05-05 20:22 | 51.11002 | -0.46277 | 3472 ft | 201 kts | 75° |
| 2026-05-05 20:22 | 51.11310 | -0.44142 | 3212 ft | 195 kts | 75° |
| 2026-05-05 20:22 | 51.11598 | -0.42103 | 2972 ft | 184 kts | 76° |
| 2026-05-05 20:23 | 51.11872 | -0.40156 | 2702 ft | 176 kts | 76° |
| 2026-05-05 20:23 | 51.12127 | -0.38337 | 2470 ft | 161 kts | 76° |
| 2026-05-05 20:23 | 51.12361 | -0.36665 | 2272 ft | 149 kts | 77° |
| 2026-05-05 20:23 | 51.12578 | -0.35112 | 2071 ft | 139 kts | 77° |
| 2026-05-05 20:24 | 51.12787 | -0.33621 | 1886 ft | 137 kts | 77° |
| 2026-05-05 20:24 | 51.12992 | -0.32150 | 1704 ft | 136 kts | 77° |
| 2026-05-05 20:24 | 51.13196 | -0.30692 | 1514 ft | 135 kts | 78° |
| 2026-05-05 20:24 | 51.13397 | -0.29243 | 1325 ft | 134 kts | 78° |
| 2026-05-05 20:25 | 51.13599 | -0.27792 | 1143 ft | 134 kts | 77° |
| 2026-05-05 20:25 | 51.13801 | -0.26342 | 954 ft | 134 kts | 78° |
| 2026-05-05 20:25 | 51.14002 | -0.24894 | 774 ft | 133 kts | 77° |
| 2026-05-05 20:25 | 51.14200 | -0.23467 | 601 ft | 134 kts | 77° |
| 2026-05-05 20:26 | 51.14400 | -0.22026 | 417 ft | 133 kts | 77° |
| 2026-05-05 20:26 | 51.14597 | -0.20597 | 247 ft | 132 kts | 77° |
| 2026-05-05 20:26 | 51.14781 | -0.19293 | 205 ft | 101 kts | 78° |
| 2026-05-05 20:26 | 51.14893 | -0.18466 | 205 ft | 58 kts | 77° |
| 2026-05-05 20:27 | 51.14949 | -0.18072 | 207 ft | 53 kts | 77° |
| 2026-05-05 20:27 | 51.15023 | -0.17541 | 215 ft | 41 kts | 77° |
| 2026-05-05 20:27 | 51.15104 | -0.17242 | 214 ft | 16 kts | 54° |
| 2026-05-05 20:27 | 51.15169 | -0.17230 | 206 ft | 7 kts | 326° |
| 2026-05-05 20:28 | 51.15171 | -0.17231 | 206 ft | 0 kts | 326° |
| 2026-05-05 20:28 | 51.15181 | -0.17243 | 212 ft | 7 kts | 325° |
| 2026-05-05 20:29 | 51.15285 | -0.17345 | 208 ft | 23 kts | 341° |
| 2026-05-05 20:29 | 51.15448 | -0.17404 | 204 ft | 25 kts | 348° |
| 2026-05-05 20:29 | 51.15628 | -0.17466 | 204 ft | 27 kts | 348° |
| 2026-05-05 20:29 | 51.15736 | -0.17506 | 209 ft | 12 kts | 335° |
| 2026-05-05 20:30 | 51.15745 | -0.17635 | 213 ft | 14 kts | 255° |
| 2026-05-05 20:30 | 51.15713 | -0.17860 | 206 ft | 25 kts | 259° |
| 2026-05-05 20:30 | 51.15718 | -0.18028 | 212 ft | 14 kts | 326° |
| 2026-05-05 20:30 | 51.15845 | -0.18078 | 209 ft | 30 kts | 347° |
| 2026-05-05 20:31 | 51.16035 | -0.18143 | 214 ft | 5 kts | 345° |
| 2026-05-05 20:31 | 51.16055 | -0.18094 | 206 ft | 8 kts | 79° |
| 2026-05-05 20:31 | 51.16063 | -0.18024 | 206 ft | 0 kts | 78° |